Terminal Aerodrome Forecast
Issued by NWS Pocatello, ID

Home | Current Version | Previous Version | Text Only | Print | Product List | Glossary On
Versions: 1 2 3 4 5 6 7 8 9 10 11 12
000
FTUS45 KPIH 251720
TAFBYI
TAF
KBYI 251720Z 2518/2618 31007KT P6SM VCSH SCT050 BKN140
     FM252100 VRB05KT P6SM BKN060 BKN140
     FM260300 31015G25KT P6SM -SHRA SCT035 OVC060
     FM260500 29015G25KT P6SM -SHRA SCT015 OVC035
     FM260900 27015G25KT P6SM VCSH SCT008 BKN060 BKN120=

USA.gov is the U.S. government's official web portal to all federal, state and local government web resources and services.